Pagina principale
METAR-TAF:

METAR-TAF

Aeroporti :

Aeroporto di Barcellona-El Prat

Barcellona, Spagna

latitudine: 41-17N, longitudine: 002-04E, altezza: 4 m

Osservazione

Il bollettino è stato emesso 42 minuti fa, alle 23:00 UTC
Vento 5 kt da ovest
Temperature 18°C
Umidità 68%
Pressione 1018 hPa
Visibilità 10 km o più
nessuna nube inferiore a 1500 m e nessun cumulonembo

METAR: LEBL 162300Z 26005KT CAVOK 18/12 Q1018 NOSIG

Ora: 01:42 (23:42 UTC)

Previsione

Il bollettino è stato emesso 42 minuti fa, alle 23:00 UTC
Previsione valida dal 17 alle 00 UTC al 17 alle 24 UTC
Vento 3 kt da direzioni variabili
Visibilità 10 km o più
Poco nuvoloso ad un'altezza di 2500 ft
Evoluzione graduale
dal 17 alle 06 UTC al 17 alle 09 UTC
Vento 10 kt da sud-ovest
Evoluzione graduale
dal 17 alle 19 UTC al 17 alle 22 UTC
Vento 4 kt da direzioni variabili

TAF: LEBL 162300Z 1700/1724 VRB03KT 9999 FEW025 TX26/1713Z TN16/1706Z BECMG 1706/1709 22010KT BECMG 1719/1722 VRB04KT

Osservazioni e previsioni meteorologiche di più di 4000 aeroporti (messaggi METAR e TAF).

Le stazioni disponibili sono rappresentate dai dischi gialli e rossi sulla carta.

Puntare il mouse per vedere il nome della stazione.

Clicca sopra per visualizzare le osservazioni e previsioni meteorologiche.

Per cambiare la mappa : fare clic sui pulsanti verdi con una croce nera per ingrandire, il pulsante verde con un trattino per diminuire, o sulla freccia verde per le mappe adiacenti.


METAR-TAF: